Time;durP1;ratioP1;P1;durP2;ratioP2;P2;SDS_P1;SDS_P2;PMS_P1;PMS_P2;Temp;Humidity;BMP_temperature;BMP_pressure;BME280_temperature;BME280_humidity;BME280_pressure;Samples;Min_cycle;Max_cycle;Signal;HPM_P1;HPM_P2
2022/08/13 00:01:22;;;;;;;10.05;3.58;;;23.80;61.70;;;;;;5051998;28;20087;-68
2022/08/13 00:03:49;;;;;;;8.13;3.25;;;23.80;61.90;;;;;;5048810;28;20396;-69
2022/08/13 00:06:15;;;;;;;5.22;3.85;;;23.80;61.90;;;;;;5052055;28;20115;-68
2022/08/13 00:08:41;;;;;;;6.03;3.45;;;23.70;62.00;;;;;;5051814;28;20025;-69
2022/08/13 00:12:56;;;;;;;6.22;3.72;;;23.70;62.20;;;;;;5052446;28;20036;-69
2022/08/13 00:13:54;;;;;;;4.60;3.53;;;23.70;62.30;;;;;;5042803;28;20434;-69
2022/08/13 00:16:21;;;;;;;7.10;3.63;;;23.70;62.40;;;;;;5048777;28;20021;-69
2022/08/13 00:18:46;;;;;;;5.55;3.35;;;23.60;62.50;;;;;;5051961;28;20232;-70
2022/08/13 00:21:12;;;;;;;5.90;3.47;;;23.60;63.00;;;;;;5052036;28;20106;-69
2022/08/13 00:23:37;;;;;;;8.10;3.33;;;23.60;62.60;;;;;;5051921;28;20060;-69
2022/08/13 00:26:03;;;;;;;5.68;3.20;;;23.60;62.50;;;;;;5052622;28;20021;-69
2022/08/13 00:28:29;;;;;;;5.70;3.15;;;23.60;62.60;;;;;;5050918;28;20029;-69
2022/08/13 00:30:57;;;;;;;7.90;3.50;;;23.60;62.70;;;;;;5052516;28;20484;-68
2022/08/13 00:33:23;;;;;;;5.70;3.20;;;23.60;62.90;;;;;;5050512;28;20025;-68
2022/08/13 00:35:51;;;;;;;7.45;3.40;;;23.60;63.00;;;;;;5049322;28;20029;-69
2022/08/13 00:38:22;;;;;;;5.68;3.30;;;23.50;63.00;;;;;;5050810;28;20484;-70
2022/08/13 00:40:52;;;;;;;5.75;3.50;;;23.50;63.10;;;;;;5052442;28;20033;-71
2022/08/13 00:43:18;;;;;;;5.65;3.47;;;23.50;63.20;;;;;;5051099;28;20510;-68
2022/08/13 00:45:43;;;;;;;13.00;3.75;;;23.50;63.20;;;;;;5051570;28;20029;-69
2022/08/13 00:50:56;;;;;;;7.22;3.17;;;23.50;63.50;;;;;;5052494;28;20075;-69
2022/08/13 00:53:24;;;;;;;4.22;3.28;;;23.40;63.50;;;;;;5051402;28;20480;-70
2022/08/13 00:55:55;;;;;;;5.78;3.15;;;23.40;63.60;;;;;;5052085;28;20032;-69
2022/08/13 00:58:23;;;;;;;4.00;2.90;;;23.40;63.70;;;;;;5031215;28;20021;-69
2022/08/13 01:00:51;;;;;;;4.20;3.22;;;23.40;63.80;;;;;;5051010;28;20029;-69
2022/08/13 01:03:18;;;;;;;4.80;3.28;;;23.40;63.90;;;;;;5037695;28;20071;-69
2022/08/13 01:05:47;;;;;;;5.57;3.15;;;23.30;63.90;;;;;;5051334;28;20084;-69
2022/08/13 01:08:16;;;;;;;6.75;3.53;;;23.30;64.00;;;;;;5051012;28;20376;-69
2022/08/13 01:10:43;;;;;;;5.97;3.78;;;23.30;64.10;;;;;;5050849;28;20029;-69
2022/08/13 01:13:11;;;;;;;5.38;3.78;;;23.30;64.30;;;;;;5050954;28;20122;-69
2022/08/13 01:15:41;;;;;;;6.25;3.53;;;23.20;64.40;;;;;;5050272;28;20060;-69
2022/08/13 01:18:13;;;;;;;6.75;3.35;;;23.30;64.50;;;;;;5049937;28;20040;-68
2022/08/13 01:20:45;;;;;;;5.93;3.80;;;23.20;64.60;;;;;;5050417;28;20033;-68
2022/08/13 01:23:13;;;;;;;5.70;3.40;;;23.20;64.80;;;;;;5050224;28;20048;-68
2022/08/13 01:25:39;;;;;;;7.55;3.45;;;23.20;64.80;;;;;;5051618;28;20404;-68
2022/08/13 01:28:05;;;;;;;4.30;2.90;;;23.10;64.80;;;;;;5050594;28;20029;-69
2022/08/13 01:30:33;;;;;;;5.72;3.13;;;23.10;64.90;;;;;;5050973;28;20762;-69
2022/08/13 01:33:02;;;;;;;6.20;3.63;;;23.10;65.10;;;;;;5049595;28;20431;-68
2022/08/13 01:35:28;;;;;;;7.07;2.80;;;23.10;65.10;;;;;;5051291;28;20048;-69
2022/08/13 01:37:57;;;;;;;4.60;3.35;;;23.10;65.10;;;;;;5032645;28;20021;-69
2022/08/13 01:40:24;;;;;;;5.55;3.47;;;23.10;65.30;;;;;;5050852;28;20484;-69
2022/08/13 01:42:50;;;;;;;4.22;3.13;;;23.10;65.40;;;;;;5050636;28;20090;-69
2022/08/13 01:45:18;;;;;;;5.70;3.63;;;23.10;65.50;;;;;;5050709;28;20450;-68
2022/08/13 01:50:29;;;;;;;7.13;3.63;;;23.00;65.50;;;;;;5032966;28;20040;-69
2022/08/13 01:53:08;;;;;;;6.55;3.42;;;23.00;65.60;;;;;;5050554;28;20033;-69
2022/08/13 01:56:03;;;;;;;5.97;3.35;;;23.00;65.60;;;;;;5051424;28;20045;-69
2022/08/13 01:58:29;;;;;;;4.20;3.60;;;23.00;65.40;;;;;;5031976;28;20029;-69
2022/08/13 02:00:59;;;;;;;6.18;3.28;;;23.00;65.70;;;;;;5051461;28;20032;-69
2022/08/13 02:03:26;;;;;;;6.40;3.80;;;23.00;65.90;;;;;;5049592;28;20029;-69
2022/08/13 02:05:52;;;;;;;6.32;3.55;;;22.90;65.90;;;;;;5050644;28;20049;-69
2022/08/13 02:08:22;;;;;;;6.05;2.85;;;22.90;66.00;;;;;;5049501;28;20060;-69
2022/08/13 02:10:51;;;;;;;4.72;3.08;;;22.90;66.00;;;;;;5031359;28;20079;-69
2022/08/13 02:13:22;;;;;;;3.15;2.85;;;22.90;66.20;;;;;;5047358;28;20039;-69
2022/08/13 02:15:49;;;;;;;5.50;3.35;;;22.90;66.30;;;;;;5049803;28;20060;-69
2022/08/13 02:18:19;;;;;;;4.32;3.05;;;22.90;66.30;;;;;;5049944;28;20137;-69
2022/08/13 02:20:50;;;;;;;4.65;3.40;;;22.80;66.40;;;;;;5051053;28;20032;-69
2022/08/13 02:23:20;;;;;;;7.40;3.65;;;22.80;66.50;;;;;;5049842;28;20045;-69
2022/08/13 02:25:47;;;;;;;5.22;3.80;;;22.80;66.60;;;;;;5051368;28;20461;-69
2022/08/13 02:28:14;;;;;;;7.13;3.45;;;22.80;66.70;;;;;;5037962;28;20072;-69
2022/08/13 02:30:41;;;;;;;4.70;3.50;;;22.80;66.70;;;;;;5051127;28;20384;-70
2022/08/13 02:33:07;;;;;;;4.40;3.35;;;22.80;66.70;;;;;;5054176;28;20124;-69
2022/08/13 02:35:35;;;;;;;6.07;3.90;;;22.80;66.80;;;;;;5051639;28;20403;-69
2022/08/13 02:38:05;;;;;;;4.55;3.30;;;22.80;66.70;;;;;;5052627;28;20033;-69
2022/08/13 02:43:16;;;;;;;4.82;3.25;;;22.80;67.00;;;;;;5044511;28;20053;-69
2022/08/13 02:45:45;;;;;;;4.80;3.47;;;22.80;67.30;;;;;;5053917;28;20594;-69
2022/08/13 02:48:11;;;;;;;5.18;3.58;;;22.70;67.30;;;;;;5053457;28;20087;-69
2022/08/13 02:50:42;;;;;;;7.90;3.78;;;22.70;67.50;;;;;;5054080;28;20029;-66
2022/08/13 02:53:09;;;;;;;6.38;3.45;;;22.70;67.70;;;;;;5036759;28;20060;-66
2022/08/13 02:55:36;;;;;;;4.68;3.78;;;22.70;67.90;;;;;;5053622;28;20029;-66
2022/08/13 02:58:04;;;;;;;5.70;4.25;;;22.70;67.80;;;;;;5053228;28;20435;-67
2022/08/13 03:00:30;;;;;;;7.65;4.25;;;22.70;67.90;;;;;;5053876;28;20036;-67
2022/08/13 03:02:57;;;;;;;7.50;4.18;;;22.70;67.90;;;;;;5053326;28;20033;-67
2022/08/13 03:05:23;;;;;;;5.75;4.18;;;22.60;68.00;;;;;;5040164;28;20057;-67
2022/08/13 03:07:51;;;;;;;7.00;4.30;;;22.60;68.10;;;;;;5051676;28;20380;-67
2022/08/13 03:10:18;;;;;;;9.07;4.75;;;22.60;68.30;;;;;;5052768;28;20052;-66
2022/08/13 03:12:48;;;;;;;6.47;4.50;;;22.60;68.20;;;;;;5052046;28;20036;-66
2022/08/13 03:15:17;;;;;;;7.15;4.72;;;22.60;68.30;;;;;;5051056;28;20025;-66
2022/08/13 03:17:43;;;;;;;8.00;4.40;;;22.60;68.40;;;;;;5043040;28;20534;-66
2022/08/13 03:20:16;;;;;;;7.03;4.00;;;22.60;68.40;;;;;;5050915;28;20025;-66
2022/08/13 03:22:58;;;;;;;7.85;4.47;;;22.60;68.60;;;;;;5053729;28;20358;-66
2022/08/13 03:25:26;;;;;;;6.50;4.00;;;22.60;68.60;;;;;;5049077;28;20068;-66
2022/08/13 03:27:53;;;;;;;6.70;4.07;;;22.60;68.80;;;;;;5050817;28;20059;-66
2022/08/13 03:30:21;;;;;;;5.03;3.67;;;22.60;68.80;;;;;;5051969;28;20033;-66
2022/08/13 03:32:48;;;;;;;4.60;3.60;;;22.60;69.00;;;;;;5053250;28;20485;-65
2022/08/13 03:35:23;;;;;;;7.20;4.07;;;22.60;68.90;;;;;;5052516;28;20081;-66
2022/08/13 03:37:53;;;;;;;6.90;3.97;;;22.50;68.90;;;;;;5033748;28;20026;-66
2022/08/13 03:40:22;;;;;;;7.50;4.13;;;22.50;69.10;;;;;;5052398;28;20055;-66
2022/08/13 03:42:49;;;;;;;6.90;4.30;;;22.50;69.30;;;;;;5051580;28;20069;-66
2022/08/13 03:45:16;;;;;;;7.00;4.43;;;22.50;69.40;;;;;;5052488;28;20499;-66
2022/08/13 03:47:43;;;;;;;8.23;4.15;;;22.50;69.40;;;;;;5053631;28;20036;-67
2022/08/13 03:50:11;;;;;;;6.78;3.90;;;22.50;69.50;;;;;;5053813;28;20480;-67
2022/08/13 03:52:37;;;;;;;7.82;4.32;;;22.50;69.50;;;;;;5054222;28;20029;-67
2022/08/13 03:55:09;;;;;;;6.82;4.00;;;22.60;69.60;;;;;;5052540;28;20086;-67
2022/08/13 03:57:40;;;;;;;6.60;4.55;;;22.50;69.70;;;;;;5053337;28;20102;-67
2022/08/13 04:00:09;;;;;;;6.10;3.85;;;22.50;69.70;;;;;;5051961;28;20033;-68
2022/08/13 04:02:40;;;;;;;6.40;4.20;;;22.50;69.90;;;;;;5051893;28;20056;-67
2022/08/13 04:05:13;;;;;;;11.75;4.72;;;22.50;69.70;;;;;;5051663;28;20053;-67
2022/08/13 04:07:39;;;;;;;5.30;3.72;;;22.50;69.80;;;;;;5051425;28;20086;-67
2022/08/13 04:10:06;;;;;;;4.95;4.25;;;22.50;70.00;;;;;;5052192;28;20060;-67
2022/08/13 04:12:34;;;;;;;6.55;4.72;;;22.50;70.10;;;;;;5051965;28;20025;-67
2022/08/13 04:15:01;;;;;;;6.90;4.55;;;22.50;70.10;;;;;;5051642;28;20044;-67
2022/08/13 04:17:27;;;;;;;5.10;4.30;;;22.50;70.20;;;;;;5044294;28;20107;-68
2022/08/13 04:19:53;;;;;;;6.07;4.13;;;22.50;70.20;;;;;;5050230;28;20123;-67
2022/08/13 04:22:20;;;;;;;6.20;3.75;;;22.50;70.70;;;;;;5052398;28;20021;-66
2022/08/13 04:24:49;;;;;;;7.07;4.55;;;22.50;70.30;;;;;;5051792;28;20461;-67
2022/08/13 04:27:14;;;;;;;5.55;3.88;;;22.50;70.30;;;;;;5050918;28;20028;-66
2022/08/13 04:29:40;;;;;;;5.07;3.80;;;22.50;70.50;;;;;;5051855;28;20075;-67
2022/08/13 04:32:06;;;;;;;7.15;4.32;;;22.50;70.50;;;;;;5050757;28;20049;-66
2022/08/13 04:34:31;;;;;;;6.18;4.60;;;22.50;70.50;;;;;;5051315;28;20036;-67
2022/08/13 04:36:57;;;;;;;6.28;4.28;;;22.50;70.50;;;;;;5042228;28;20029;-66
2022/08/13 04:39:24;;;;;;;4.85;3.97;;;22.60;70.40;;;;;;5048082;28;20079;-66
2022/08/13 04:41:50;;;;;;;5.57;3.78;;;22.50;70.60;;;;;;5030017;28;20029;-67
2022/08/13 04:44:16;;;;;;;5.60;4.10;;;22.50;71.00;;;;;;5049589;28;20051;-66
2022/08/13 04:46:42;;;;;;;5.07;4.55;;;22.60;71.20;;;;;;5051423;28;20403;-67
2022/08/13 04:49:11;;;;;;;7.45;4.32;;;22.60;71.30;;;;;;5050153;28;20025;-67
2022/08/13 04:51:37;;;;;;;7.72;4.15;;;22.60;71.20;;;;;;5052393;28;20494;-67
2022/08/13 04:54:02;;;;;;;6.65;4.28;;;22.60;71.30;;;;;;5050608;28;20112;-67
2022/08/13 04:56:28;;;;;;;6.75;4.53;;;22.60;71.20;;;;;;5033661;28;20473;-67
2022/08/13 04:58:55;;;;;;;7.65;4.57;;;22.60;71.30;;;;;;5051276;28;20033;-67
2022/08/13 05:01:21;;;;;;;6.20;4.63;;;22.60;71.20;;;;;;5057331;28;20025;-67
2022/08/13 05:03:47;;;;;;;4.85;3.92;;;22.70;71.40;;;;;;5051030;28;20136;-67
2022/08/13 05:06:21;;;;;;;11.77;4.75;;;22.70;71.50;;;;;;5051214;28;20474;-67
2022/08/13 05:08:49;;;;;;;5.55;4.50;;;22.80;71.50;;;;;;5050958;28;20141;-67
2022/08/13 05:11:17;;;;;;;5.10;3.63;;;22.70;71.70;;;;;;5050588;28;20119;-67
2022/08/13 05:13:43;;;;;;;8.07;4.32;;;22.80;71.50;;;;;;5050434;28;20037;-67
2022/08/13 05:16:12;;;;;;;5.28;4.32;;;22.80;71.20;;;;;;5051281;28;20104;-67
2022/08/13 05:18:42;;;;;;;4.82;4.13;;;22.90;71.30;;;;;;5049610;28;20033;-70
2022/08/13 05:21:11;;;;;;;6.30;4.30;;;22.90;71.80;;;;;;5051195;28;20474;-69
2022/08/13 05:23:40;;;;;;;5.35;3.67;;;23.00;71.50;;;;;;5050490;28;20508;-76
2022/08/13 05:26:08;;;;;;;7.00;4.68;;;23.00;71.70;;;;;;5050984;28;20029;-73
2022/08/13 05:28:34;;;;;;;4.25;3.63;;;23.10;71.80;;;;;;5050387;28;20045;-74
2022/08/13 05:31:02;;;;;;;7.53;4.40;;;23.10;71.90;;;;;;5050931;28;20028;-77
2022/08/13 05:33:29;;;;;;;5.85;4.32;;;23.20;71.90;;;;;;5050738;28;20021;-76
2022/08/13 05:35:58;;;;;;;6.45;4.05;;;23.20;71.70;;;;;;5050876;28;20028;-75
2022/08/13 05:38:25;;;;;;;5.97;4.07;;;23.30;72.50;;;;;;5050652;28;20024;-73
2022/08/13 05:40:52;;;;;;;5.20;4.00;;;23.30;71.60;;;;;;5051085;28;20037;-74
2022/08/13 05:43:21;;;;;;;8.27;4.22;;;23.40;71.40;;;;;;5050352;28;20044;-73
2022/08/13 05:45:58;;;;;;;5.15;4.10;;;23.60;71.60;;;;;;5050965;28;20465;-74
2022/08/13 05:48:29;;;;;;;5.13;4.03;;;23.60;70.80;;;;;;5050242;28;20407;-73
2022/08/13 05:50:59;;;;;;;6.75;4.40;;;23.80;70.70;;;;;;5050170;28;20025;-69
2022/08/13 05:53:26;;;;;;;7.75;4.35;;;23.90;71.00;;;;;;5032765;28;20357;-70
2022/08/13 05:55:53;;;;;;;5.65;3.95;;;24.00;70.70;;;;;;5051479;28;20087;-68
2022/08/13 05:58:23;;;;;;;5.78;4.55;;;24.00;69.90;;;;;;5049426;28;20116;-69
2022/08/13 06:03:35;;;;;;;5.50;4.07;;;24.10;69.80;;;;;;5043306;28;20455;-69
2022/08/13 06:06:04;;;;;;;5.78;3.70;;;24.20;69.50;;;;;;5054631;28;20040;-68
2022/08/13 06:08:34;;;;;;;5.60;4.40;;;24.20;69.40;;;;;;5053127;28;20033;-69
2022/08/13 06:11:03;;;;;;;5.93;3.90;;;24.20;69.60;;;;;;5054502;28;20380;-68
2022/08/13 06:13:30;;;;;;;6.38;4.18;;;24.30;70.30;;;;;;5057442;28;20075;-69
2022/08/13 06:16:00;;;;;;;4.88;4.30;;;24.30;69.40;;;;;;5044072;28;20029;-69
2022/08/13 06:18:29;;;;;;;5.57;4.00;;;24.30;70.10;;;;;;5059941;28;20021;-68
2022/08/13 06:20:55;;;;;;;5.13;4.07;;;24.30;69.80;;;;;;5061261;28;20055;-69
2022/08/13 06:23:24;;;;;;;8.23;3.63;;;24.40;70.60;;;;;;5061366;28;20032;-69
2022/08/13 06:25:52;;;;;;;6.35;3.85;;;24.50;70.70;;;;;;5055228;28;20021;-69
2022/08/13 06:28:22;;;;;;;4.65;3.47;;;24.60;70.40;;;;;;5058940;28;20025;-69
2022/08/13 06:30:50;;;;;;;6.25;3.85;;;24.70;71.00;;;;;;5054607;28;20056;-69
2022/08/13 06:33:20;;;;;;;9.63;4.00;;;24.70;71.40;;;;;;5053065;28;20028;-69
2022/08/13 06:35:46;;;;;;;6.63;4.38;;;24.80;71.00;;;;;;5048100;28;20295;-70
2022/08/13 06:38:13;;;;;;;4.97;3.83;;;24.80;70.50;;;;;;5052436;28;20064;-68
2022/08/13 06:40:42;;;;;;;5.00;3.78;;;24.90;70.20;;;;;;5052852;28;20029;-68
2022/08/13 06:43:08;;;;;;;5.53;4.70;;;25.00;70.50;;;;;;5052921;28;20555;-69
2022/08/13 06:45:35;;;;;;;6.55;4.57;;;25.10;70.50;;;;;;5052462;28;20025;-68
2022/08/13 06:48:02;;;;;;;5.43;4.03;;;25.10;70.50;;;;;;5051706;28;20040;-68
2022/08/13 06:50:28;;;;;;;6.07;4.30;;;25.30;70.50;;;;;;5051957;28;20025;-69
2022/08/13 06:52:56;;;;;;;4.63;3.63;;;25.30;70.60;;;;;;5053210;28;20582;-68
2022/08/13 06:55:21;;;;;;;5.38;4.50;;;25.40;70.90;;;;;;5033653;28;20040;-68
2022/08/13 06:57:48;;;;;;;5.82;4.35;;;25.50;69.60;;;;;;5052214;28;20021;-68
2022/08/13 07:00:15;;;;;;;7.78;4.32;;;25.50;69.90;;;;;;5051621;28;20369;-68
2022/08/13 07:02:42;;;;;;;7.50;4.68;;;25.60;69.80;;;;;;5050725;28;20039;-68
2022/08/13 07:05:08;;;;;;;6.72;4.45;;;25.60;70.10;;;;;;5035832;28;20045;-69
2022/08/13 07:07:37;;;;;;;5.38;4.43;;;25.70;69.80;;;;;;5051768;28;20021;-69
2022/08/13 07:10:04;;;;;;;5.43;3.88;;;25.80;69.70;;;;;;5052700;28;20033;-69
2022/08/13 07:12:32;;;;;;;7.18;4.80;;;25.80;68.60;;;;;;5051387;28;20132;-70
2022/08/13 07:14:58;;;;;;;6.95;3.92;;;25.80;68.80;;;;;;5052154;28;20120;-69
2022/08/13 07:17:27;;;;;;;12.55;3.97;;;25.90;69.00;;;;;;5050474;28;20452;-69
2022/08/13 07:19:53;;;;;;;8.43;4.20;;;25.90;69.10;;;;;;5055398;28;20448;-69
2022/08/13 07:22:19;;;;;;;6.38;3.97;;;26.00;68.60;;;;;;5051786;28;20074;-69
2022/08/13 07:24:45;;;;;;;7.53;5.05;;;26.00;68.00;;;;;;5050851;28;20037;-69
2022/08/13 07:27:10;;;;;;;11.82;4.70;;;26.10;68.30;;;;;;5044999;28;20041;-69
2022/08/13 07:29:37;;;;;;;6.63;4.20;;;26.20;68.50;;;;;;5047371;28;20105;-69
2022/08/13 07:32:04;;;;;;;6.82;4.35;;;26.20;69.10;;;;;;5049084;28;20025;-68
2022/08/13 07:34:32;;;;;;;5.97;4.30;;;26.30;68.20;;;;;;5046787;28;20028;-69
2022/08/13 07:36:59;;;;;;;6.10;4.35;;;26.40;68.20;;;;;;5051443;28;20120;-68
2022/08/13 07:39:26;;;;;;;7.68;4.30;;;26.40;69.10;;;;;;5050239;28;20032;-69
2022/08/13 07:41:52;;;;;;;6.40;4.20;;;26.50;68.00;;;;;;5050493;28;20025;-69
2022/08/13 07:44:22;;;;;;;7.82;4.35;;;26.60;67.10;;;;;;5052150;28;20088;-69
2022/08/13 07:46:50;;;;;;;5.07;4.15;;;26.60;68.00;;;;;;5045931;28;20045;-67
2022/08/13 07:49:17;;;;;;;5.88;3.70;;;26.70;66.70;;;;;;5049464;28;20066;-67
2022/08/13 07:51:43;;;;;;;7.00;4.63;;;26.70;66.50;;;;;;5051307;28;20025;-69
2022/08/13 07:54:12;;;;;;;7.30;4.65;;;26.80;66.60;;;;;;5051455;28;20025;-67
2022/08/13 07:56:39;;;;;;;9.13;4.30;;;26.80;67.40;;;;;;5049798;28;20044;-67
2022/08/13 07:59:04;;;;;;;8.95;4.43;;;26.90;66.90;;;;;;5046150;28;20032;-68
2022/08/13 08:01:33;;;;;;;11.75;4.65;;;26.90;66.80;;;;;;5039203;28;20022;-68
2022/08/13 08:04:02;;;;;;;5.07;3.95;;;26.90;66.90;;;;;;5049059;28;20045;-69
2022/08/13 08:06:32;;;;;;;7.82;3.92;;;27.00;66.90;;;;;;5045676;28;20428;-69
2022/08/13 08:08:57;;;;;;;5.13;4.05;;;27.00;66.80;;;;;;5050422;28;20045;-69
2022/08/13 08:14:10;;;;;;;8.23;5.15;;;27.10;66.40;;;;;;5043478;28;20155;-69
2022/08/13 08:16:36;;;;;;;5.05;3.67;;;27.00;66.80;;;;;;5046950;28;20028;-68
2022/08/13 08:19:02;;;;;;;5.15;4.10;;;27.00;65.80;;;;;;5053897;28;20028;-68
2022/08/13 08:21:28;;;;;;;5.20;3.63;;;26.90;66.00;;;;;;5051569;28;20096;-69
2022/08/13 08:24:00;;;;;;;8.07;4.60;;;26.90;65.40;;;;;;5041930;28;20048;-68
2022/08/13 08:26:27;;;;;;;6.28;3.97;;;26.90;65.30;;;;;;5051595;28;20108;-68
2022/08/13 08:28:56;;;;;;;5.78;3.78;;;26.90;65.90;;;;;;5048883;28;20138;-68
2022/08/13 08:31:24;;;;;;;6.45;4.95;;;26.90;66.60;;;;;;5052037;28;20040;-68
2022/08/13 08:33:55;;;;;;;7.22;4.78;;;26.90;66.90;;;;;;5046785;28;20029;-67
2022/08/13 08:36:21;;;;;;;6.03;4.10;;;27.00;67.00;;;;;;5050534;28;20036;-68
2022/08/13 08:44:23;;;;;;;6.07;5.35;;;27.20;67.60;;;;;;5050067;28;20098;-68
2022/08/13 08:46:52;;;;;;;7.88;5.40;;;27.30;67.50;;;;;;5050304;28;20025;-67
2022/08/13 08:49:21;;;;;;;8.73;4.80;;;27.40;67.50;;;;;;5047917;28;20037;-68
2022/08/13 08:51:51;;;;;;;7.97;4.70;;;27.40;67.20;;;;;;5058862;28;20036;-68
2022/08/13 08:54:18;;;;;;;5.50;4.40;;;27.50;66.60;;;;;;5046643;28;20033;-68
2022/08/13 08:56:48;;;;;;;6.88;4.88;;;27.50;66.40;;;;;;5032249;28;20021;-69
2022/08/13 08:59:15;;;;;;;5.72;4.80;;;27.50;67.20;;;;;;5046503;28;20068;-71
2022/08/13 09:01:44;;;;;;;5.85;4.72;;;27.60;67.30;;;;;;5036198;28;20368;-70
2022/08/13 09:04:13;;;;;;;5.63;4.70;;;27.70;66.60;;;;;;5048306;28;20037;-70
2022/08/13 09:06:41;;;;;;;10.90;6.05;;;27.80;66.80;;;;;;5043141;28;20130;-71
2022/08/13 09:09:07;;;;;;;6.07;4.82;;;27.90;67.10;;;;;;5046216;28;20178;-70
2022/08/13 09:11:35;;;;;;;6.03;4.38;;;27.90;66.30;;;;;;5046099;28;20112;-67
2022/08/13 09:14:12;;;;;;;5.57;4.18;;;28.00;66.10;;;;;;5044946;28;20036;-68
2022/08/13 09:16:38;;;;;;;5.80;5.00;;;28.10;65.00;;;;;;5047259;28;20035;-68
2022/08/13 09:19:08;;;;;;;7.15;5.47;;;28.10;65.00;;;;;;5049699;28;20032;-67
2022/08/13 09:21:43;;;;;;;6.50;5.13;;;28.00;65.00;;;;;;5049541;28;20032;-68
2022/08/13 09:24:10;;;;;;;7.43;5.15;;;28.10;65.00;;;;;;5051128;28;20131;-68
2022/08/13 09:26:38;;;;;;;5.90;4.68;;;28.20;64.70;;;;;;5047965;28;20541;-68
2022/08/13 09:29:05;;;;;;;5.40;4.90;;;28.30;64.90;;;;;;5050358;28;20028;-68
2022/08/13 09:31:31;;;;;;;6.25;5.28;;;28.30;64.40;;;;;;5047905;28;20107;-68
2022/08/13 09:33:56;;;;;;;6.20;5.15;;;28.40;64.10;;;;;;5050081;28;20123;-68
2022/08/13 09:36:24;;;;;;;9.02;5.03;;;28.50;64.30;;;;;;5050600;28;20036;-68
2022/08/13 09:38:50;;;;;;;5.80;5.03;;;28.60;64.20;;;;;;5049675;28;20048;-68
2022/08/13 09:41:32;;;;;;;6.40;5.32;;;28.60;64.40;;;;;;5037103;28;20021;-68
2022/08/13 09:43:57;;;;;;;5.35;4.63;;;28.60;64.80;;;;;;5044852;28;20044;-68
2022/08/13 09:46:23;;;;;;;6.07;4.68;;;28.70;64.70;;;;;;5049256;28;20029;-68
2022/08/13 09:48:51;;;;;;;8.10;6.75;;;28.60;64.60;;;;;;5050473;28;20032;-68
2022/08/13 09:51:17;;;;;;;7.25;5.72;;;28.70;64.70;;;;;;5044468;28;20024;-68
2022/08/13 09:53:46;;;;;;;9.90;5.50;;;28.70;64.70;;;;;;5050016;28;20033;-68
2022/08/13 09:56:17;;;;;;;8.13;5.30;;;28.70;64.80;;;;;;5032036;28;20028;-68
2022/08/13 09:58:49;;;;;;;5.82;4.80;;;28.70;64.20;;;;;;5050724;28;20036;-68
2022/08/13 10:01:15;;;;;;;6.93;5.07;;;28.80;63.70;;;;;;5041776;28;20033;-68
2022/08/13 10:03:42;;;;;;;8.52;5.78;;;28.80;64.10;;;;;;5049642;28;20091;-68
2022/08/13 10:06:08;;;;;;;7.03;4.68;;;28.70;63.40;;;;;;5036898;28;20385;-68
2022/08/13 10:08:34;;;;;;;7.63;5.20;;;28.60;63.40;;;;;;5043406;28;20115;-68
2022/08/13 10:11:00;;;;;;;5.85;4.57;;;28.60;63.40;;;;;;5048677;28;20112;-67
2022/08/13 10:13:26;;;;;;;5.93;5.30;;;28.40;63.30;;;;;;5047726;28;20025;-67
2022/08/13 10:15:52;;;;;;;5.93;5.05;;;28.40;63.80;;;;;;5026495;28;20036;-67
2022/08/13 10:18:18;;;;;;;6.93;4.78;;;28.30;63.80;;;;;;5034927;28;20017;-67
2022/08/13 10:20:45;;;;;;;8.48;5.43;;;28.30;64.40;;;;;;5049208;28;20029;-68
2022/08/13 10:23:13;;;;;;;10.65;6.35;;;28.20;63.90;;;;;;5049237;28;20044;-68
2022/08/13 10:25:41;;;;;;;7.30;5.20;;;28.20;63.70;;;;;;5048037;28;20133;-68
2022/08/13 10:28:25;;;;;;;6.10;5.18;;;28.10;64.30;;;;;;5048897;28;20044;-68
2022/08/13 10:30:51;;;;;;;7.28;5.13;;;28.10;64.50;;;;;;5050389;28;20030;-67
2022/08/13 10:33:18;;;;;;;8.13;5.93;;;28.10;64.70;;;;;;5049517;28;20051;-67
2022/08/13 10:35:55;;;;;;;12.60;6.30;;;28.10;65.00;;;;;;5048901;28;20550;-67
2022/08/13 10:38:26;;;;;;;5.75;4.68;;;28.20;66.20;;;;;;5048227;28;20037;-67
2022/08/13 10:40:53;;;;;;;5.07;4.57;;;28.20;65.20;;;;;;5047027;28;20049;-67
2022/08/13 10:43:19;;;;;;;10.27;4.50;;;28.20;65.40;;;;;;5031508;28;20388;-67
2022/08/13 10:45:46;;;;;;;5.53;4.28;;;28.20;65.20;;;;;;5048219;28;20025;-67
2022/08/13 10:48:12;;;;;;;5.68;4.93;;;28.20;65.50;;;;;;5049688;28;20033;-67
2022/08/13 10:50:39;;;;;;;6.97;4.22;;;28.20;65.90;;;;;;5051308;28;20021;-67
2022/08/13 10:53:05;;;;;;;6.38;4.95;;;28.20;66.00;;;;;;5051237;28;20032;-66
2022/08/13 10:55:31;;;;;;;7.43;4.00;;;28.20;66.20;;;;;;5046609;28;20079;-66
2022/08/13 10:57:58;;;;;;;5.47;4.38;;;28.20;66.70;;;;;;5034057;28;20480;-66
2022/08/13 11:00:25;;;;;;;6.13;5.13;;;28.10;67.20;;;;;;5049025;28;20044;-67
2022/08/13 11:02:50;;;;;;;5.38;4.40;;;28.10;67.10;;;;;;5051470;28;20081;-68
2022/08/13 11:05:25;;;;;;;5.75;4.50;;;28.10;66.50;;;;;;5048016;28;20049;-67
2022/08/13 11:07:53;;;;;;;5.20;4.45;;;28.00;66.70;;;;;;5050314;28;20554;-67
2022/08/13 11:10:20;;;;;;;7.43;4.45;;;28.00;66.90;;;;;;5051622;28;20083;-67
2022/08/13 11:12:52;;;;;;;7.55;4.55;;;28.00;67.00;;;;;;5050918;28;20070;-68
2022/08/13 11:15:21;;;;;;;5.60;4.07;;;27.90;66.90;;;;;;5052520;28;20546;-66
2022/08/13 11:17:53;;;;;;;7.95;4.78;;;27.90;67.10;;;;;;5038607;28;20040;-65
2022/08/13 11:20:20;;;;;;;7.45;4.43;;;27.70;67.10;;;;;;5051910;28;20025;-67
2022/08/13 11:22:55;;;;;;;7.97;5.20;;;27.70;67.30;;;;;;5052471;28;20032;-66
2022/08/13 11:25:23;;;;;;;6.63;5.22;;;27.70;67.70;;;;;;5052234;28;20392;-66
2022/08/13 11:27:49;;;;;;;8.20;5.45;;;27.60;67.90;;;;;;5052478;28;20025;-66
2022/08/13 11:30:16;;;;;;;7.97;5.00;;;27.60;67.90;;;;;;5051179;28;20108;-66
2022/08/13 11:32:42;;;;;;;7.05;4.72;;;27.60;67.60;;;;;;5051882;28;20082;-66
2022/08/13 11:35:08;;;;;;;6.93;5.00;;;27.60;67.70;;;;;;5051081;28;20028;-65
2022/08/13 11:37:35;;;;;;;5.95;4.78;;;27.60;67.70;;;;;;5052387;28;20025;-65
2022/08/13 11:40:03;;;;;;;7.10;5.18;;;27.60;67.60;;;;;;5050199;28;20040;-67
2022/08/13 11:42:30;;;;;;;5.93;5.20;;;27.60;67.70;;;;;;5052571;28;20028;-66
2022/08/13 11:44:56;;;;;;;8.13;5.47;;;27.50;68.00;;;;;;5050327;28;20037;-66
2022/08/13 11:47:22;;;;;;;7.28;5.05;;;27.50;67.70;;;;;;5052871;28;20028;-68
2022/08/13 11:49:48;;;;;;;7.60;5.00;;;27.40;67.80;;;;;;5050680;28;20484;-67
2022/08/13 11:52:14;;;;;;;10.23;4.93;;;27.40;68.10;;;;;;5052986;28;20394;-67
2022/08/13 11:54:41;;;;;;;7.68;5.65;;;27.40;68.20;;;;;;5050886;28;20023;-67
2022/08/13 11:57:07;;;;;;;5.63;4.93;;;27.40;68.60;;;;;;5050458;28;20485;-65
2022/08/13 11:59:33;;;;;;;8.68;5.40;;;27.40;69.00;;;;;;5050044;28;20033;-66
2022/08/13 12:01:59;;;;;;;6.28;5.00;;;27.40;69.00;;;;;;5051857;28;20535;-66
2022/08/13 12:04:25;;;;;;;8.77;5.20;;;27.40;69.20;;;;;;5048482;28;20128;-66
2022/08/13 12:06:50;;;;;;;6.15;4.82;;;27.40;68.50;;;;;;5047589;28;20083;-67
2022/08/13 12:09:18;;;;;;;6.97;4.90;;;27.30;68.50;;;;;;5048658;28;20337;-66
2022/08/13 12:11:43;;;;;;;6.53;4.22;;;27.30;68.50;;;;;;5032099;28;20029;-66
2022/08/13 12:14:09;;;;;;;7.47;4.45;;;27.20;68.70;;;;;;5050288;28;20479;-65
2022/08/13 12:16:34;;;;;;;7.55;4.75;;;27.30;69.40;;;;;;5050953;28;20129;-66
2022/08/13 12:19:00;;;;;;;6.90;4.97;;;27.20;69.10;;;;;;5050844;28;20025;-66
2022/08/13 12:21:27;;;;;;;7.60;4.82;;;27.20;70.00;;;;;;5048084;28;20087;-66
2022/08/13 12:23:52;;;;;;;5.03;4.53;;;27.20;69.70;;;;;;5050207;28;20033;-66
2022/08/13 12:26:18;;;;;;;7.82;5.45;;;27.30;70.60;;;;;;5048360;28;20027;-69
2022/08/13 12:28:45;;;;;;;4.97;4.47;;;27.30;70.00;;;;;;5049644;28;20029;-66
2022/08/13 12:31:13;;;;;;;7.07;4.60;;;27.40;70.30;;;;;;5050386;28;20025;-66
2022/08/13 12:33:40;;;;;;;6.82;4.38;;;27.40;69.50;;;;;;5041964;28;20021;-66
2022/08/13 12:36:07;;;;;;;5.47;4.22;;;27.40;69.70;;;;;;5049118;28;20125;-66
2022/08/13 12:38:32;;;;;;;5.38;4.50;;;27.40;69.90;;;;;;5062361;28;20047;-66
2022/08/13 12:40:59;;;;;;;6.45;4.32;;;27.40;69.60;;;;;;5048783;28;20030;-66
2022/08/13 12:43:25;;;;;;;5.85;4.30;;;27.40;69.00;;;;;;5049897;28;20029;-66
2022/08/13 12:45:50;;;;;;;5.45;4.45;;;27.40;69.10;;;;;;5047525;28;20044;-66
2022/08/13 12:48:17;;;;;;;7.65;5.15;;;27.40;69.40;;;;;;5052230;28;20087;-66
2022/08/13 12:50:45;;;;;;;5.40;4.22;;;27.50;69.40;;;;;;5049965;28;20033;-66
2022/08/13 12:53:11;;;;;;;5.00;4.47;;;27.50;68.80;;;;;;5049242;28;20032;-66
2022/08/13 12:55:40;;;;;;;6.75;4.68;;;27.60;68.90;;;;;;5050061;28;20412;-66
2022/08/13 12:58:19;;;;;;;8.65;5.03;;;27.60;69.10;;;;;;5050645;28;20400;-66
2022/08/13 13:00:49;;;;;;;7.15;4.35;;;27.70;69.10;;;;;;5043880;28;20427;-66
2022/08/13 13:03:15;;;;;;;7.95;4.57;;;27.70;68.80;;;;;;5045595;28;20028;-66
2022/08/13 13:05:44;;;;;;;5.35;4.40;;;27.80;68.50;;;;;;5047008;28;20053;-66
2022/08/13 13:08:22;;;;;;;5.90;3.63;;;27.80;68.90;;;;;;5050431;28;20444;-66